createdAt,value
2019-03-31T00:00:07.861Z,82.67
2019-03-31T00:02:39.487Z,75.17
2019-03-31T00:05:08.868Z,72.70
2019-03-31T00:07:38.579Z,73.43
2019-03-31T00:10:08.653Z,75.33
2019-03-31T00:12:39.065Z,78.10
2019-03-31T00:15:08.874Z,81.37
2019-03-31T00:17:38.296Z,74.67
2019-03-31T00:20:07.997Z,78.17
2019-03-31T00:22:37.470Z,71.87
2019-03-31T00:25:06.967Z,80.87
2019-03-31T00:27:36.609Z,69.60
2019-03-31T00:30:07.342Z,78.10
2019-03-31T00:32:37.039Z,84.47
2019-03-31T00:35:06.477Z,74.67
2019-03-31T00:37:35.895Z,73.57
2019-03-31T00:40:06.488Z,80.33
2019-03-31T00:42:35.950Z,79.30
2019-03-31T00:45:07.511Z,76.60
2019-03-31T00:47:37.299Z,70.03
2019-03-31T00:50:08.508Z,80.37
2019-03-31T00:52:38.252Z,75.77
2019-03-31T00:55:08.928Z,74.93
2019-03-31T00:57:38.286Z,83.23
2019-03-31T01:00:09.700Z,83.20
2019-03-31T01:02:40.755Z,82.10
2019-03-31T01:05:10.284Z,86.37
2019-03-31T01:07:39.870Z,85.87
2019-03-31T01:10:09.526Z,84.63
2019-03-31T01:12:39.107Z,82.03
2019-03-31T01:15:12.986Z,97.67
2019-03-31T01:17:44.643Z,98.07
2019-03-31T01:20:15.206Z,97.80
2019-03-31T01:22:44.633Z,101.30
2019-03-31T01:25:16.143Z,98.37
2019-03-31T01:27:45.681Z,103.00
2019-03-31T01:30:16.312Z,96.23
2019-03-31T01:32:45.875Z,108.53
2019-03-31T01:35:15.439Z,103.23
2019-03-31T01:37:44.967Z,100.00
2019-03-31T01:40:15.455Z,105.37
2019-03-31T01:42:44.815Z,111.10
2019-03-31T01:45:14.598Z,111.67
2019-03-31T01:47:43.979Z,105.33
2019-03-31T01:50:14.705Z,122.03
2019-03-31T01:52:44.235Z,109.73
2019-03-31T01:55:13.605Z,111.43
2019-03-31T01:57:43.038Z,111.70
2019-03-31T02:00:15.341Z,113.10
2019-03-31T02:02:44.837Z,114.43
2019-03-31T02:05:14.282Z,121.90
2019-03-31T02:07:43.681Z,111.70
2019-03-31T02:10:13.118Z,119.67
2019-03-31T02:12:42.489Z,114.77
2019-03-31T02:15:12.096Z,111.97
2019-03-31T02:17:41.529Z,126.00
2019-03-31T02:20:10.974Z,119.73
2019-03-31T02:22:40.438Z,122.93
2019-03-31T02:25:09.795Z,126.13
2019-03-31T02:27:39.310Z,121.77
2019-03-31T02:30:09.315Z,116.00
2019-03-31T02:32:38.736Z,137.23
2019-03-31T02:35:08.520Z,121.73
2019-03-31T02:37:38.013Z,133.37
2019-03-31T02:40:07.525Z,146.73
2019-03-31T02:42:36.984Z,135.83
2019-03-31T02:45:07.791Z,136.87
2019-03-31T02:47:37.229Z,134.83
2019-03-31T02:50:06.910Z,136.90
2019-03-31T02:52:36.360Z,147.27
2019-03-31T02:55:06.842Z,135.37
2019-03-31T02:57:36.594Z,151.30
2019-03-31T03:00:07.359Z,137.63
2019-03-31T03:02:42.663Z,151.90
2019-03-31T03:05:19.513Z,145.20
2019-03-31T03:07:46.153Z,144.60
2019-03-31T03:10:15.576Z,132.43
2019-03-31T03:12:47.288Z,138.97
2019-03-31T03:15:19.782Z,142.67
2019-03-31T03:17:49.580Z,141.20
2019-03-31T03:20:18.941Z,131.03
2019-03-31T03:22:48.394Z,149.57
2019-03-31T03:25:17.871Z,137.37
2019-03-31T03:27:47.321Z,153.30
2019-03-31T03:30:16.707Z,147.57
2019-03-31T03:33:12.726Z,136.37
2019-03-31T03:35:18.247Z,146.90
2019-03-31T03:37:48.619Z,144.33
2019-03-31T03:40:17.982Z,146.67
2019-03-31T03:42:47.354Z,143.30
2019-03-31T03:45:16.951Z,136.47
2019-03-31T03:47:46.406Z,140.83
2019-03-31T03:50:15.846Z,149.57
2019-03-31T03:52:45.728Z,147.10
2019-03-31T03:55:15.240Z,137.13
2019-03-31T03:57:44.613Z,138.57
2019-03-31T04:00:14.431Z,151.90
2019-03-31T04:02:43.873Z,146.27
2019-03-31T04:05:13.400Z,136.33
2019-03-31T04:07:43.189Z,137.33
2019-03-31T04:10:32.063Z,142.40
2019-03-31T04:13:01.531Z,135.87
2019-03-31T04:15:30.961Z,130.50
2019-03-31T04:18:00.695Z,125.70
2019-03-31T04:20:30.170Z,133.97
2019-03-31T04:22:59.601Z,130.13
2019-03-31T04:25:29.128Z,117.93
2019-03-31T04:27:58.586Z,129.43
2019-03-31T04:30:28.271Z,130.60
2019-03-31T04:32:57.868Z,115.67
2019-03-31T04:35:27.294Z,121.57
2019-03-31T04:37:56.738Z,129.67
2019-03-31T04:40:26.196Z,124.20
2019-03-31T04:42:55.631Z,131.53
2019-03-31T04:45:25.376Z,137.80
2019-03-31T04:47:54.919Z,127.53
2019-03-31T04:50:24.301Z,133.30
2019-03-31T04:52:54.026Z,132.30
2019-03-31T04:55:23.423Z,140.80
2019-03-31T04:57:52.842Z,136.20
2019-03-31T05:00:22.210Z,138.90
2019-03-31T05:02:51.900Z,137.10
2019-03-31T05:05:21.324Z,133.63
2019-03-31T05:07:50.760Z,140.07
2019-03-31T05:10:20.151Z,122.47
2019-03-31T05:12:49.595Z,123.63
2019-03-31T05:15:19.300Z,137.30
2019-03-31T05:17:49.011Z,126.00
2019-03-31T05:20:18.372Z,129.37
2019-03-31T05:22:47.812Z,143.00
2019-03-31T05:25:17.197Z,137.87
2019-03-31T05:27:46.638Z,129.00
2019-03-31T05:30:16.467Z,140.93
2019-03-31T05:32:45.930Z,140.40
2019-03-31T05:35:15.298Z,138.13
2019-03-31T05:37:50.794Z,147.97
2019-03-31T05:40:16.027Z,146.37
2019-03-31T05:42:45.462Z,137.77
2019-03-31T05:45:15.102Z,144.50
2019-03-31T05:47:44.506Z,154.80
2019-03-31T05:50:13.923Z,150.10
2019-03-31T05:52:43.372Z,149.77
2019-03-31T05:55:12.837Z,146.33
2019-03-31T05:57:42.240Z,149.80
2019-03-31T06:00:11.791Z,151.80
2019-03-31T06:02:41.253Z,140.87
2019-03-31T06:05:10.763Z,147.13
2019-03-31T06:07:40.220Z,148.53
2019-03-31T06:10:09.781Z,140.77
2019-03-31T06:12:39.211Z,146.20
2019-03-31T06:15:08.760Z,152.80
2019-03-31T06:17:38.179Z,171.43
2019-03-31T06:20:07.861Z,172.77
2019-03-31T06:22:37.553Z,165.80
2019-03-31T06:25:07.397Z,157.77
2019-03-31T06:27:36.752Z,164.83
2019-03-31T06:30:07.045Z,148.30
2019-03-31T06:32:36.525Z,151.80
2019-03-31T06:35:07.069Z,158.47
2019-03-31T06:37:36.530Z,161.43
2019-03-31T06:40:06.131Z,160.33
2019-03-31T06:42:35.566Z,149.70
2019-03-31T06:45:06.515Z,159.27
2019-03-31T06:47:35.883Z,158.13
2019-03-31T06:50:08.190Z,175.83
2019-03-31T06:52:37.816Z,162.87
2019-03-31T06:55:07.934Z,162.70
2019-03-31T06:57:37.322Z,150.80
2019-03-31T07:00:07.933Z,159.43
2019-03-31T07:02:37.366Z,171.80
2019-03-31T07:05:08.470Z,164.03
2019-03-31T07:07:37.833Z,160.80
2019-03-31T07:10:07.717Z,154.70
2019-03-31T07:12:37.328Z,158.73
2019-03-31T07:15:08.799Z,163.03
2019-03-31T07:17:38.270Z,145.90
2019-03-31T07:20:10.152Z,160.77
2019-03-31T07:22:39.608Z,153.03
2019-03-31T07:25:11.286Z,147.83
2019-03-31T07:27:41.088Z,147.07
2019-03-31T07:30:18.209Z,134.57
2019-03-31T07:32:47.823Z,129.90
2019-03-31T07:35:18.884Z,132.97
2019-03-31T07:37:48.468Z,117.60
2019-03-31T07:40:22.666Z,128.40
2019-03-31T07:42:52.111Z,137.63
2019-03-31T07:45:21.897Z,124.23
2019-03-31T07:47:51.432Z,122.30
2019-03-31T07:50:21.271Z,116.77
2019-03-31T07:52:50.701Z,113.27
2019-03-31T07:55:20.286Z,116.13
2019-03-31T07:57:49.764Z,113.20
2019-03-31T08:05:54.178Z,115.73
2019-03-31T08:08:23.656Z,112.37
2019-03-31T08:10:53.341Z,96.70
2019-03-31T08:13:22.910Z,100.03
2019-03-31T08:15:52.367Z,108.50
2019-03-31T08:18:22.670Z,96.27
2019-03-31T08:20:52.352Z,93.40
2019-03-31T08:23:21.832Z,80.60
2019-03-31T08:25:51.352Z,85.23
2019-03-31T08:28:21.377Z,92.93
2019-03-31T08:30:51.132Z,83.93
2019-03-31T08:33:20.574Z,77.40
2019-03-31T08:35:50.448Z,78.40
2019-03-31T08:38:19.886Z,78.23
2019-03-31T08:40:49.319Z,71.27
2019-03-31T08:43:18.816Z,79.33
2019-03-31T08:45:48.257Z,78.67
2019-03-31T08:48:17.970Z,73.67
2019-03-31T08:50:47.633Z,71.00
2019-03-31T08:53:17.382Z,71.97
2019-03-31T08:55:46.831Z,72.90
2019-03-31T08:58:16.320Z,84.70
2019-03-31T09:00:47.418Z,77.20
2019-03-31T09:03:16.987Z,77.63
2019-03-31T09:06:00.619Z,82.00
2019-03-31T09:08:18.909Z,83.23
2019-03-31T09:10:48.351Z,81.10
2019-03-31T09:13:17.923Z,72.47
2019-03-31T09:15:47.439Z,68.07
2019-03-31T09:18:16.924Z,72.73
2019-03-31T09:20:46.465Z,68.73
2019-03-31T09:23:15.983Z,70.47
2019-03-31T09:25:47.674Z,73.83
2019-03-31T09:28:16.709Z,67.50
2019-03-31T09:30:46.223Z,64.03
2019-03-31T09:33:15.611Z,68.97
2019-03-31T09:35:45.088Z,62.17
2019-03-31T09:38:14.606Z,60.50
2019-03-31T09:40:44.073Z,65.23
2019-03-31T09:43:13.540Z,62.93
2019-03-31T09:45:42.970Z,66.50
2019-03-31T09:48:12.450Z,69.63
2019-03-31T09:50:41.927Z,55.73
2019-03-31T09:53:11.362Z,62.43
2019-03-31T09:55:40.834Z,59.57
2019-03-31T09:58:10.614Z,69.43
2019-03-31T10:00:43.382Z,57.30
2019-03-31T10:03:12.873Z,56.97
2019-03-31T10:05:42.507Z,51.30
2019-03-31T10:08:12.291Z,56.33
2019-03-31T10:10:41.727Z,55.23
2019-03-31T10:13:11.155Z,51.80
2019-03-31T10:15:41.704Z,49.70
2019-03-31T10:18:11.162Z,55.23
2019-03-31T10:20:40.669Z,55.70
2019-03-31T10:23:10.029Z,51.30
2019-03-31T10:25:39.439Z,154.10
2019-03-31T10:28:08.941Z,63.47
2019-03-31T10:30:40.314Z,93.90
2019-03-31T10:33:09.837Z,56.47
2019-03-31T10:35:39.313Z,55.53
2019-03-31T10:38:09.103Z,50.53
2019-03-31T10:40:38.827Z,56.43
2019-03-31T10:43:08.635Z,46.57
2019-03-31T10:45:38.028Z,52.90
2019-03-31T10:48:19.508Z,47.53
2019-03-31T10:50:39.695Z,46.43
2019-03-31T10:53:09.596Z,50.23
2019-03-31T10:55:39.083Z,47.50
2019-03-31T10:58:08.497Z,52.63
2019-03-31T11:00:38.830Z,65.50
2019-03-31T11:03:08.671Z,49.87
2019-03-31T11:05:39.240Z,55.93
2019-03-31T11:08:08.719Z,48.63
2019-03-31T11:10:38.150Z,48.80
2019-03-31T11:13:07.682Z,47.40
2019-03-31T11:15:38.206Z,46.67
2019-03-31T11:18:07.636Z,48.23
2019-03-31T11:20:37.148Z,45.83
2019-03-31T11:23:17.862Z,48.77
2019-03-31T11:25:47.414Z,43.87
2019-03-31T11:28:17.295Z,49.70
2019-03-31T11:30:47.771Z,47.70
2019-03-31T11:33:18.183Z,51.33
2019-03-31T11:35:48.816Z,51.93
2019-03-31T11:38:18.429Z,45.45
2019-03-31T11:40:47.959Z,41.43
2019-03-31T11:43:17.687Z,43.60
2019-03-31T11:45:47.256Z,42.33
2019-03-31T11:48:16.828Z,44.98
2019-03-31T11:50:46.395Z,45.10
2019-03-31T11:53:15.901Z,37.20
2019-03-31T11:58:23.717Z,42.57
2019-03-31T12:00:55.196Z,39.98
2019-03-31T12:03:25.730Z,41.00
2019-03-31T12:05:55.389Z,38.17
2019-03-31T12:08:25.027Z,45.63
2019-03-31T12:10:54.564Z,41.80
2019-03-31T12:13:24.083Z,38.20
2019-03-31T12:15:53.549Z,33.63
2019-03-31T12:18:23.048Z,41.90
2019-03-31T12:20:52.576Z,43.40
2019-03-31T12:23:26.569Z,34.67
2019-03-31T12:25:56.217Z,41.50
2019-03-31T12:28:25.858Z,38.93
2019-03-31T12:30:55.680Z,41.68
2019-03-31T12:33:25.278Z,39.97
2019-03-31T12:35:54.913Z,35.97
2019-03-31T12:38:24.532Z,35.60
2019-03-31T12:40:54.130Z,38.40
2019-03-31T12:43:23.938Z,37.13
2019-03-31T12:45:53.654Z,35.15
2019-03-31T12:48:23.261Z,33.70
2019-03-31T12:50:52.868Z,40.98
2019-03-31T12:53:22.425Z,33.95
2019-03-31T12:55:59.917Z,39.67
2019-03-31T12:58:23.250Z,35.38
2019-03-31T13:00:52.797Z,30.92
2019-03-31T13:03:22.472Z,34.53
2019-03-31T13:05:51.955Z,29.40
2019-03-31T13:08:21.533Z,33.75
2019-03-31T13:10:51.070Z,31.57
2019-03-31T13:13:20.589Z,30.82
2019-03-31T13:15:50.232Z,34.85
2019-03-31T13:18:20.397Z,34.23
2019-03-31T13:20:50.064Z,27.62
2019-03-31T13:23:19.683Z,29.35
2019-03-31T13:25:49.188Z,33.58
2019-03-31T13:28:18.649Z,30.57
2019-03-31T13:30:48.213Z,32.58
2019-03-31T13:33:17.719Z,29.77
2019-03-31T13:35:47.294Z,29.10
2019-03-31T13:38:16.937Z,31.10
2019-03-31T13:40:46.520Z,38.15
2019-03-31T13:43:16.152Z,31.23
2019-03-31T13:45:45.658Z,35.85
2019-03-31T13:48:15.139Z,34.58
2019-03-31T13:50:44.631Z,36.63
2019-03-31T13:53:16.313Z,33.13
2019-03-31T13:55:45.311Z,31.05
2019-03-31T13:58:15.519Z,32.37
2019-03-31T14:00:45.732Z,26.80
2019-03-31T14:03:15.317Z,34.98
2019-03-31T14:05:44.783Z,34.50
2019-03-31T14:08:25.154Z,28.67
2019-03-31T14:10:45.505Z,36.55
2019-03-31T14:13:16.136Z,29.75
2019-03-31T14:15:45.823Z,32.50
2019-03-31T14:18:15.378Z,26.48
2019-03-31T14:20:45.432Z,29.82
2019-03-31T14:23:14.999Z,28.07
2019-03-31T14:25:44.493Z,29.32
2019-03-31T14:28:14.089Z,32.93
2019-03-31T14:30:43.961Z,35.43
2019-03-31T14:33:13.545Z,23.90
2019-03-31T14:35:43.187Z,31.15
2019-03-31T14:38:12.709Z,25.97
2019-03-31T14:40:42.276Z,28.12
2019-03-31T14:43:12.164Z,27.80
2019-03-31T14:45:41.732Z,34.15
2019-03-31T14:48:11.216Z,31.67
2019-03-31T14:50:41.072Z,27.50
2019-03-31T14:53:10.698Z,19.90
2019-03-31T14:55:40.345Z,29.02
2019-03-31T14:58:10.254Z,20.05
2019-03-31T15:00:39.844Z,21.02
2019-03-31T15:03:09.310Z,21.97
2019-03-31T15:05:39.046Z,25.32
2019-03-31T15:08:08.665Z,22.60
2019-03-31T15:10:38.221Z,23.98
2019-03-31T15:13:07.742Z,24.57
2019-03-31T15:15:37.489Z,19.42
2019-03-31T15:18:07.082Z,18.15
2019-03-31T15:20:36.602Z,19.73
2019-03-31T15:23:06.088Z,18.30
2019-03-31T15:25:35.733Z,19.20
2019-03-31T15:28:05.351Z,18.17
2019-03-31T15:30:34.921Z,16.60
2019-03-31T15:33:04.516Z,18.62
2019-03-31T15:35:37.383Z,15.70
2019-03-31T15:38:05.199Z,24.35
2019-03-31T15:40:36.069Z,17.05
2019-03-31T15:43:06.883Z,19.70
2019-03-31T15:45:36.480Z,18.50
2019-03-31T15:48:06.093Z,16.93
2019-03-31T15:50:35.764Z,16.27
2019-03-31T15:53:05.384Z,15.85
2019-03-31T15:55:34.863Z,15.37
2019-03-31T15:58:05.466Z,18.17
2019-03-31T16:00:35.185Z,17.63
2019-03-31T16:03:04.744Z,14.17
2019-03-31T16:05:34.538Z,15.38
2019-03-31T16:08:04.592Z,18.25
2019-03-31T16:10:34.263Z,21.90
2019-03-31T16:13:03.980Z,19.80
2019-03-31T16:15:33.641Z,17.37
2019-03-31T16:18:03.276Z,19.90
2019-03-31T16:20:32.984Z,12.67
2019-03-31T16:23:02.545Z,16.75
2019-03-31T16:25:34.176Z,14.77
2019-03-31T16:28:03.773Z,11.87
2019-03-31T16:30:36.196Z,13.40
2019-03-31T16:33:07.275Z,17.87
2019-03-31T16:38:34.957Z,13.10
2019-03-31T16:41:04.485Z,11.80
2019-03-31T16:43:33.979Z,13.83
2019-03-31T16:46:03.505Z,13.48
2019-03-31T16:48:33.325Z,15.00
2019-03-31T16:51:02.943Z,15.60
2019-03-31T16:53:32.377Z,14.20
2019-03-31T16:56:01.855Z,10.17
2019-03-31T16:58:31.311Z,13.27
2019-03-31T17:01:00.757Z,11.03
2019-03-31T17:03:30.310Z,10.63
2019-03-31T17:05:59.751Z,10.20
2019-03-31T17:08:29.204Z,18.37
2019-03-31T17:10:58.609Z,13.20
2019-03-31T17:13:28.045Z,16.00
2019-03-31T17:15:58.582Z,14.15
2019-03-31T17:18:28.070Z,16.70
2019-03-31T17:20:57.596Z,14.00
2019-03-31T17:23:27.245Z,12.43
2019-03-31T17:25:56.972Z,7.93
2019-03-31T17:28:26.422Z,11.47
2019-03-31T17:30:57.154Z,8.27
2019-03-31T17:33:30.159Z,12.77
2019-03-31T17:35:57.999Z,12.80
2019-03-31T17:38:27.512Z,13.80
2019-03-31T17:40:57.054Z,9.57
2019-03-31T17:43:26.528Z,9.47
2019-03-31T17:45:56.129Z,9.45
2019-03-31T17:48:25.856Z,12.97
2019-03-31T17:50:55.736Z,9.33
2019-03-31T17:53:25.383Z,14.23
2019-03-31T17:55:55.129Z,15.10
2019-03-31T17:58:24.591Z,12.50
2019-03-31T18:00:54.165Z,12.87
2019-03-31T18:03:23.601Z,13.57
2019-03-31T18:05:53.399Z,11.60
2019-03-31T18:08:22.945Z,16.07
2019-03-31T18:10:52.411Z,13.10
2019-03-31T18:13:21.851Z,12.70
2019-03-31T18:15:51.345Z,13.37
2019-03-31T18:18:20.885Z,15.83
2019-03-31T18:20:51.338Z,10.70
2019-03-31T18:23:20.837Z,12.27
2019-03-31T18:25:50.343Z,10.37
2019-03-31T18:28:20.201Z,11.70
2019-03-31T18:30:49.704Z,12.20
2019-03-31T18:33:19.432Z,12.03
2019-03-31T18:35:48.870Z,13.80
2019-03-31T18:38:18.369Z,9.47
2019-03-31T18:40:47.810Z,9.97
2019-03-31T18:43:17.340Z,15.77
2019-03-31T18:45:46.990Z,11.50
2019-03-31T18:48:16.448Z,10.73
2019-03-31T18:50:45.964Z,10.73
2019-03-31T18:53:17.233Z,16.10
2019-03-31T18:55:48.368Z,16.63
2019-03-31T18:58:35.894Z,14.73
2019-03-31T19:01:07.136Z,13.83
2019-03-31T19:03:47.122Z,12.50
2019-03-31T19:06:21.068Z,14.17
2019-03-31T19:09:00.310Z,15.97
2019-03-31T19:11:34.042Z,17.90
2019-03-31T19:14:10.944Z,17.23
2019-03-31T19:16:54.038Z,13.27
2019-03-31T19:19:25.163Z,15.17
2019-03-31T19:22:05.322Z,11.23
2019-03-31T19:24:36.486Z,18.23
2019-03-31T19:27:07.582Z,18.33
2019-03-31T19:29:51.004Z,17.77
2019-03-31T19:32:24.793Z,18.97
2019-03-31T19:34:59.149Z,20.30
2019-03-31T19:37:32.969Z,17.00
2019-03-31T19:40:13.171Z,17.83
2019-03-31T19:42:44.183Z,14.30
2019-03-31T19:45:18.265Z,16.00
2019-03-31T19:47:49.443Z,17.93
2019-03-31T19:50:21.144Z,18.67
2019-03-31T19:53:05.137Z,14.47
2019-03-31T19:56:06.642Z,14.47
2019-03-31T19:58:36.827Z,18.30
2019-03-31T20:01:10.664Z,16.47
2019-03-31T20:03:53.922Z,15.10
2019-03-31T20:06:25.003Z,19.20
2019-03-31T20:08:56.039Z,13.60
2019-03-31T20:11:27.176Z,18.97
2019-03-31T20:14:01.112Z,22.20
2019-03-31T20:16:34.980Z,22.93
2019-03-31T20:19:09.096Z,19.27
2019-03-31T20:21:42.904Z,14.13
2019-03-31T20:24:23.069Z,16.43
2019-03-31T20:26:54.563Z,16.07
2019-03-31T20:29:37.683Z,14.57
2019-03-31T20:32:17.536Z,19.13
2019-03-31T20:35:00.659Z,21.43
2019-03-31T20:37:31.889Z,18.53
2019-03-31T20:40:18.262Z,14.47
2019-03-31T20:42:50.994Z,14.83
2019-03-31T20:45:20.479Z,23.60
2019-03-31T20:47:49.921Z,14.30
2019-03-31T20:50:19.881Z,21.83
2019-03-31T20:52:49.489Z,16.00
2019-03-31T20:55:20.003Z,21.77
2019-03-31T20:57:49.558Z,16.47
2019-03-31T21:00:19.268Z,14.13
2019-03-31T21:02:48.744Z,12.63
2019-03-31T21:05:18.166Z,21.20
2019-03-31T21:07:47.941Z,20.43
2019-03-31T21:10:17.577Z,17.27
2019-03-31T21:12:47.023Z,16.47
2019-03-31T21:15:16.476Z,21.13
2019-03-31T21:17:45.944Z,16.90
2019-03-31T21:20:15.446Z,16.90
2019-03-31T21:22:44.904Z,16.13
2019-03-31T21:25:14.668Z,15.53
2019-03-31T21:27:44.094Z,16.00
2019-03-31T21:30:13.700Z,20.50
2019-03-31T21:32:43.169Z,12.33
2019-03-31T21:35:12.743Z,17.23
2019-03-31T21:37:42.460Z,17.17
2019-03-31T21:40:12.066Z,16.07
2019-03-31T21:42:41.510Z,15.93
2019-03-31T21:45:12.146Z,16.87
2019-03-31T21:47:41.997Z,26.13
2019-03-31T21:50:12.809Z,20.20
2019-03-31T21:52:42.250Z,22.33
2019-03-31T21:55:11.856Z,22.73
2019-03-31T21:57:41.297Z,11.33
2019-03-31T22:00:11.537Z,25.40
2019-03-31T22:02:41.704Z,15.37
2019-03-31T22:05:11.383Z,14.27
2019-03-31T22:07:40.863Z,24.33
2019-03-31T22:10:10.834Z,18.27
2019-03-31T22:12:40.288Z,17.00
2019-03-31T22:15:10.217Z,12.93
2019-03-31T22:17:39.679Z,21.20
2019-03-31T22:20:09.565Z,16.90
2019-03-31T22:22:39.043Z,28.07
2019-03-31T22:25:08.940Z,22.37
2019-03-31T22:27:38.745Z,15.40
2019-03-31T22:30:09.249Z,13.80
2019-03-31T22:32:38.747Z,12.90
2019-03-31T22:35:08.304Z,16.40
2019-03-31T22:37:37.786Z,20.40
2019-03-31T22:40:07.375Z,11.73
2019-03-31T22:42:36.827Z,20.53
2019-03-31T22:45:07.033Z,16.37
2019-03-31T22:47:36.450Z,14.97
2019-03-31T22:50:06.496Z,18.17
2019-03-31T22:52:35.978Z,16.43
2019-03-31T22:55:08.291Z,16.03
2019-03-31T22:57:37.767Z,19.37
2019-03-31T23:00:09.042Z,13.83
2019-03-31T23:02:40.220Z,14.90
2019-03-31T23:05:10.763Z,14.30
2019-03-31T23:07:40.415Z,17.47
2019-03-31T23:10:10.288Z,13.03
2019-03-31T23:12:39.748Z,15.20
2019-03-31T23:15:09.640Z,22.20
2019-03-31T23:17:39.076Z,16.80
2019-03-31T23:20:10.307Z,18.53
2019-03-31T23:22:40.118Z,16.93
2019-03-31T23:25:09.723Z,26.23
2019-03-31T23:27:39.229Z,14.57
2019-03-31T23:30:10.068Z,8.97
2019-03-31T23:32:39.518Z,16.13
2019-03-31T23:35:08.962Z,16.07
2019-03-31T23:37:38.457Z,23.40
2019-03-31T23:40:08.027Z,10.67
2019-03-31T23:42:37.803Z,13.37
2019-03-31T23:45:07.989Z,15.93
2019-03-31T23:47:37.830Z,14.97
2019-03-31T23:50:07.599Z,12.93
2019-03-31T23:52:37.469Z,17.50
2019-03-31T23:55:07.329Z,23.13
2019-03-31T23:57:40.724Z,14.80
